createdAt,value
2022-11-18T00:00:16.653Z,14.15
2022-11-18T00:02:44.963Z,15.38
2022-11-18T00:05:13.469Z,14.05
2022-11-18T00:07:42.422Z,15.18
2022-11-18T00:10:11.313Z,14.45
2022-11-18T00:12:57.075Z,14.32
2022-11-18T00:15:31.602Z,14.43
2022-11-18T00:18:00.220Z,14.20
2022-11-18T00:20:28.463Z,14.32
2022-11-18T00:22:56.944Z,13.10
2022-11-18T00:25:25.178Z,13.23
2022-11-18T00:27:53.654Z,12.55
2022-11-18T00:30:21.855Z,14.02
2022-11-18T00:32:51.528Z,13.32
2022-11-18T00:35:19.939Z,12.85
2022-11-18T00:37:48.453Z,13.07
2022-11-18T00:40:16.908Z,13.30
2022-11-18T00:42:52.727Z,13.27
2022-11-18T00:45:21.165Z,13.68
2022-11-18T00:47:49.427Z,12.57
2022-11-18T00:50:19.496Z,12.45
2022-11-18T00:52:48.238Z,12.95
2022-11-18T00:55:16.512Z,12.88
2022-11-18T00:57:44.807Z,12.77
2022-11-18T01:00:13.609Z,12.18
2022-11-18T01:02:43.588Z,12.77
2022-11-18T01:05:11.852Z,12.00
2022-11-18T01:07:42.528Z,12.38
2022-11-18T01:10:11.161Z,12.48
2022-11-18T01:12:56.647Z,11.85
2022-11-18T01:15:25.080Z,11.77
2022-11-18T01:17:53.345Z,12.45
2022-11-18T01:20:21.946Z,11.95
2022-11-18T01:22:51.824Z,12.68
2022-11-18T01:25:20.600Z,11.95
2022-11-18T01:27:48.840Z,11.63
2022-11-18T01:30:17.935Z,12.25
2022-11-18T01:32:46.251Z,11.80
2022-11-18T01:35:14.565Z,12.50
2022-11-18T01:37:42.844Z,11.57
2022-11-18T01:40:14.264Z,12.40
2022-11-18T01:42:42.692Z,11.60
2022-11-18T01:45:21.828Z,11.50
2022-11-18T01:47:50.983Z,10.52
2022-11-18T01:50:19.848Z,11.50
2022-11-18T01:52:51.580Z,11.25
2022-11-18T01:55:24.239Z,10.95
2022-11-18T01:57:52.888Z,11.27
2022-11-18T02:00:21.323Z,11.27
2022-11-18T02:02:49.624Z,10.43
2022-11-18T02:05:17.837Z,10.95
2022-11-18T02:07:46.371Z,10.82
2022-11-18T02:10:20.219Z,11.10
2022-11-18T02:12:50.447Z,11.07
2022-11-18T02:15:19.277Z,11.20
2022-11-18T02:17:50.285Z,10.73
2022-11-18T02:20:28.517Z,10.85
2022-11-18T02:23:38.203Z,10.30
2022-11-18T02:26:29.779Z,10.27
2022-11-18T02:29:02.745Z,10.73
2022-11-18T02:31:33.459Z,10.35
2022-11-18T02:34:04.911Z,10.40
2022-11-18T02:36:35.144Z,10.85
2022-11-18T02:39:07.076Z,10.80
2022-11-18T02:41:36.135Z,10.85
2022-11-18T02:44:06.653Z,10.55
2022-11-18T02:46:36.392Z,10.00
2022-11-18T02:49:06.800Z,10.23
2022-11-18T02:51:35.124Z,9.95
2022-11-18T02:54:05.076Z,9.13
2022-11-18T02:56:33.929Z,10.35
2022-11-18T02:59:02.232Z,9.70
2022-11-18T03:01:32.660Z,9.23
2022-11-18T03:04:01.232Z,9.45
2022-11-18T03:06:31.183Z,9.90
2022-11-18T03:09:04.384Z,9.80
2022-11-18T03:11:33.781Z,9.60
2022-11-18T03:14:10.160Z,9.55
2022-11-18T03:16:41.473Z,9.50
2022-11-18T03:19:11.477Z,9.48
2022-11-18T03:21:42.154Z,8.70
2022-11-18T03:24:12.823Z,9.15
2022-11-18T03:26:41.668Z,9.05
2022-11-18T03:29:11.887Z,9.07
2022-11-18T03:31:42.990Z,9.43
2022-11-18T03:34:12.465Z,8.82
2022-11-18T03:36:43.376Z,9.20
2022-11-18T03:39:11.933Z,9.65
2022-11-18T03:41:41.524Z,8.98
2022-11-18T03:44:12.990Z,8.75
2022-11-18T03:46:44.702Z,8.20
2022-11-18T03:49:15.163Z,9.13
2022-11-18T03:51:44.804Z,8.52
2022-11-18T03:54:14.133Z,8.63
2022-11-18T03:56:43.775Z,8.48
2022-11-18T03:59:14.788Z,8.52
2022-11-18T04:01:46.138Z,8.32
2022-11-18T04:04:14.422Z,8.68
2022-11-18T04:06:43.816Z,8.20
2022-11-18T04:09:15.716Z,8.48
2022-11-18T04:12:03.982Z,8.40
2022-11-18T04:14:32.754Z,8.25
2022-11-18T04:17:03.605Z,8.20
2022-11-18T04:19:32.016Z,8.80
2022-11-18T04:22:00.209Z,8.68
2022-11-18T04:24:28.472Z,8.30
2022-11-18T04:26:56.692Z,8.18
2022-11-18T04:29:24.989Z,8.70
2022-11-18T04:31:53.259Z,7.70
2022-11-18T04:34:23.055Z,8.52
2022-11-18T04:36:51.412Z,8.05
2022-11-18T04:39:20.016Z,8.10
2022-11-18T04:41:56.968Z,8.00
2022-11-18T04:44:25.665Z,7.40
2022-11-18T04:46:53.920Z,7.70
2022-11-18T04:49:23.704Z,8.00
2022-11-18T04:51:52.087Z,8.27
2022-11-18T04:54:20.432Z,7.50
2022-11-18T04:56:49.843Z,7.20
2022-11-18T04:59:20.282Z,7.93
2022-11-18T05:01:49.140Z,8.10
2022-11-18T05:04:18.812Z,7.43
2022-11-18T05:06:48.608Z,7.45
2022-11-18T05:09:17.410Z,6.95
2022-11-18T05:12:03.420Z,7.47
2022-11-18T05:14:31.952Z,7.18
2022-11-18T05:17:01.464Z,7.53
2022-11-18T05:19:29.804Z,7.10
2022-11-18T05:21:59.512Z,7.13
2022-11-18T05:24:27.874Z,6.90
2022-11-18T05:26:58.068Z,7.07
2022-11-18T05:29:26.391Z,7.50
2022-11-18T05:31:54.676Z,6.90
2022-11-18T05:34:23.113Z,7.57
2022-11-18T05:36:51.447Z,6.88
2022-11-18T05:39:21.533Z,7.20
2022-11-18T05:42:07.317Z,8.65
2022-11-18T05:44:35.652Z,8.15
2022-11-18T05:47:03.947Z,9.32
2022-11-18T05:49:32.348Z,9.00
2022-11-18T05:52:00.555Z,11.15
2022-11-18T05:54:30.336Z,14.63
2022-11-18T05:56:58.651Z,14.10
2022-11-18T05:59:27.206Z,15.88
2022-11-18T06:01:56.792Z,18.65
2022-11-18T06:04:27.404Z,22.08
2022-11-18T06:06:56.684Z,18.50
2022-11-18T06:09:26.367Z,18.90
2022-11-18T06:11:58.016Z,25.95
2022-11-18T06:14:27.183Z,26.02
2022-11-18T06:16:56.830Z,35.42
2022-11-18T06:19:25.129Z,30.58
2022-11-18T06:21:53.638Z,31.50
2022-11-18T06:24:22.033Z,31.20
2022-11-18T06:26:50.384Z,30.83
2022-11-18T06:29:24.552Z,36.28
2022-11-18T06:31:55.960Z,33.55
2022-11-18T06:34:24.312Z,35.38
2022-11-18T06:36:52.815Z,32.85
2022-11-18T06:39:21.315Z,32.40
2022-11-18T06:41:49.687Z,32.65
2022-11-18T06:44:18.351Z,32.35
2022-11-18T06:46:59.613Z,32.70
2022-11-18T06:49:29.090Z,31.15
2022-11-18T06:51:57.460Z,31.27
2022-11-18T06:54:25.812Z,25.90
2022-11-18T06:56:54.195Z,27.02
2022-11-18T06:59:25.360Z,26.52
2022-11-18T07:01:54.373Z,25.50
2022-11-18T07:04:22.876Z,24.23
2022-11-18T07:06:51.284Z,24.73
2022-11-18T07:09:19.844Z,23.55
2022-11-18T07:11:48.324Z,23.05
2022-11-18T07:14:16.598Z,23.25
2022-11-18T07:16:46.404Z,23.33
2022-11-18T07:19:15.038Z,22.83
2022-11-18T07:21:43.972Z,21.35
2022-11-18T07:24:13.851Z,21.15
2022-11-18T07:26:42.184Z,21.92
2022-11-18T07:29:10.610Z,21.58
2022-11-18T07:31:39.853Z,20.27
2022-11-18T07:34:09.684Z,21.38
2022-11-18T07:36:38.171Z,19.95
2022-11-18T07:39:06.953Z,20.58
2022-11-18T07:41:35.324Z,21.25
2022-11-18T07:44:04.280Z,19.88
2022-11-18T07:46:34.449Z,20.33
2022-11-18T07:49:03.400Z,18.98
2022-11-18T07:51:35.028Z,19.80
2022-11-18T07:54:03.448Z,19.85
2022-11-18T07:56:31.641Z,18.77
2022-11-18T07:59:00.243Z,18.85
2022-11-18T08:01:29.284Z,19.00
2022-11-18T08:03:57.841Z,18.45
2022-11-18T08:06:26.148Z,17.42
2022-11-18T08:08:55.908Z,17.00
2022-11-18T08:11:24.233Z,17.23
2022-11-18T08:13:53.085Z,17.70
2022-11-18T08:16:22.697Z,17.30
2022-11-18T08:18:51.078Z,16.73
2022-11-18T08:21:19.965Z,17.13
2022-11-18T08:23:51.100Z,17.00
2022-11-18T08:26:20.995Z,17.30
2022-11-18T08:28:49.456Z,15.88
2022-11-18T08:31:19.621Z,16.23
2022-11-18T08:33:48.073Z,16.15
2022-11-18T08:36:17.427Z,15.90
2022-11-18T08:38:45.819Z,14.68
2022-11-18T08:41:14.202Z,15.63
2022-11-18T08:43:44.086Z,15.50
2022-11-18T08:46:12.673Z,15.15
2022-11-18T08:48:40.888Z,14.63
2022-11-18T08:51:10.831Z,14.93
2022-11-18T08:53:39.371Z,15.02
2022-11-18T08:56:07.954Z,15.10
2022-11-18T08:58:36.536Z,14.90
2022-11-18T09:01:08.009Z,15.07
2022-11-18T09:03:36.340Z,14.52
2022-11-18T09:06:09.206Z,13.90
2022-11-18T09:08:37.490Z,14.57
2022-11-18T09:11:08.993Z,14.15
2022-11-18T09:16:28.298Z,13.82
2022-11-18T09:19:04.878Z,13.75
2022-11-18T09:21:41.556Z,14.00
2022-11-18T09:24:11.869Z,13.35
2022-11-18T09:26:40.198Z,13.00
2022-11-18T09:29:08.660Z,13.57
2022-11-18T09:31:38.466Z,13.85
2022-11-18T09:34:06.800Z,13.38
2022-11-18T09:36:35.117Z,13.45
2022-11-18T09:39:03.476Z,13.48
2022-11-18T09:41:41.941Z,12.43
2022-11-18T09:44:15.783Z,13.20
2022-11-18T09:46:51.929Z,12.73
2022-11-18T09:49:23.677Z,12.85
2022-11-18T09:51:52.323Z,13.43
2022-11-18T09:54:21.895Z,12.73
2022-11-18T09:56:50.366Z,12.50
2022-11-18T09:59:19.388Z,13.02
2022-11-18T10:01:49.230Z,12.57
2022-11-18T10:04:18.170Z,12.48
2022-11-18T10:06:46.853Z,11.93
2022-11-18T10:09:25.177Z,11.00
2022-11-18T10:12:01.563Z,11.90
2022-11-18T10:14:37.105Z,12.20
2022-11-18T10:17:09.484Z,11.70
2022-11-18T10:19:40.222Z,11.48
2022-11-18T10:22:22.632Z,11.35
2022-11-18T10:24:53.657Z,11.05
2022-11-18T10:27:21.969Z,10.93
2022-11-18T10:29:54.219Z,11.68
2022-11-18T10:32:24.063Z,10.80
2022-11-18T10:34:53.336Z,11.20
2022-11-18T10:37:39.031Z,10.63
2022-11-18T10:40:24.586Z,11.00
2022-11-18T10:42:52.823Z,11.20
2022-11-18T10:45:26.364Z,10.65
2022-11-18T10:48:04.005Z,10.95
2022-11-18T10:50:34.643Z,10.57
2022-11-18T10:53:03.145Z,11.00
2022-11-18T10:55:31.584Z,10.52
2022-11-18T10:58:02.972Z,10.73
2022-11-18T11:00:42.887Z,10.90
2022-11-18T11:03:42.986Z,10.95
2022-11-18T11:06:29.928Z,11.10
2022-11-18T11:08:59.644Z,10.73
2022-11-18T11:11:28.912Z,10.10
2022-11-18T11:14:07.535Z,10.02
2022-11-18T11:16:53.023Z,9.93
2022-11-18T11:19:24.624Z,9.57
2022-11-18T11:21:52.977Z,9.65
2022-11-18T11:24:21.549Z,9.80
2022-11-18T11:30:05.322Z,9.35
2022-11-18T11:32:40.179Z,9.32
2022-11-18T11:35:13.901Z,8.95
2022-11-18T11:37:48.525Z,9.32
2022-11-18T11:40:22.416Z,8.80
2022-11-18T11:42:55.137Z,8.95
2022-11-18T11:45:26.193Z,9.15
2022-11-18T11:48:07.102Z,9.50
2022-11-18T11:51:00.108Z,8.43
2022-11-18T11:53:52.921Z,8.70
2022-11-18T11:56:24.701Z,8.30
2022-11-18T11:59:10.577Z,8.75
2022-11-18T12:01:42.602Z,8.35
2022-11-18T12:04:18.000Z,8.52
2022-11-18T12:06:48.252Z,8.75
2022-11-18T12:09:19.509Z,8.48
2022-11-18T12:11:49.427Z,8.52
2022-11-18T12:14:23.111Z,8.05
2022-11-18T12:16:56.602Z,8.00
2022-11-18T12:19:24.968Z,8.43
2022-11-18T12:22:06.531Z,7.93
2022-11-18T12:24:36.873Z,8.75
2022-11-18T12:27:08.076Z,8.82
2022-11-18T12:29:55.773Z,8.25
2022-11-18T12:32:28.793Z,7.90
2022-11-18T12:34:58.916Z,8.18
2022-11-18T12:37:45.331Z,8.35
2022-11-18T12:40:42.482Z,8.15
2022-11-18T12:44:05.704Z,8.43
2022-11-18T12:46:53.244Z,8.40
2022-11-18T12:50:13.582Z,8.15
2022-11-18T12:52:50.362Z,8.05
2022-11-18T12:55:20.949Z,7.78
2022-11-18T12:57:49.183Z,7.28
2022-11-18T13:00:19.316Z,7.63
2022-11-18T13:02:53.187Z,7.78
2022-11-18T13:05:23.067Z,7.35
2022-11-18T13:08:11.504Z,7.55
2022-11-18T13:10:41.945Z,7.40
2022-11-18T13:13:15.113Z,7.18
2022-11-18T13:16:01.213Z,7.70
2022-11-18T13:18:29.431Z,7.25
2022-11-18T13:20:58.834Z,7.32
2022-11-18T13:23:49.946Z,7.22
2022-11-18T13:26:21.075Z,6.93
2022-11-18T13:29:12.256Z,7.47
2022-11-18T13:31:43.994Z,6.97
2022-11-18T13:34:14.306Z,6.78
2022-11-18T13:36:44.458Z,6.65
2022-11-18T13:39:22.484Z,6.40
2022-11-18T13:42:00.248Z,6.47
2022-11-18T13:44:29.353Z,7.00
2022-11-18T13:47:00.095Z,6.72
2022-11-18T13:49:35.195Z,7.03
2022-11-18T13:52:03.449Z,6.75
2022-11-18T13:54:33.145Z,6.10
2022-11-18T13:57:01.423Z,6.13
2022-11-18T13:59:30.320Z,6.25
2022-11-18T14:02:01.081Z,6.10
2022-11-18T14:04:31.747Z,5.97
2022-11-18T14:07:17.508Z,5.85
2022-11-18T14:09:55.681Z,5.93
2022-11-18T14:12:25.501Z,6.05
2022-11-18T14:14:53.827Z,5.95
2022-11-18T14:17:22.897Z,6.30
2022-11-18T14:19:51.957Z,6.15
2022-11-18T14:22:21.140Z,6.75
2022-11-18T14:24:58.101Z,6.10
2022-11-18T14:27:31.778Z,6.13
2022-11-18T14:30:00.325Z,5.70
2022-11-18T14:32:28.590Z,6.22
2022-11-18T14:35:00.831Z,6.43
2022-11-18T14:37:29.134Z,6.45
2022-11-18T14:39:59.066Z,6.55
2022-11-18T14:42:27.398Z,7.05
2022-11-18T14:44:55.940Z,8.38
2022-11-18T14:47:26.259Z,7.47
2022-11-18T14:49:54.557Z,8.75
2022-11-18T14:52:22.783Z,7.47
2022-11-18T14:54:52.249Z,8.63
2022-11-18T14:57:22.179Z,8.05
2022-11-18T14:59:50.414Z,7.80
2022-11-18T15:02:19.201Z,7.47
2022-11-18T15:04:48.695Z,8.75
2022-11-18T15:07:23.418Z,8.70
2022-11-18T15:09:52.321Z,8.32
2022-11-18T15:12:22.007Z,8.45
2022-11-18T15:14:50.289Z,8.43
2022-11-18T15:17:20.415Z,8.80
2022-11-18T15:19:48.924Z,8.60
2022-11-18T15:22:17.645Z,8.63
2022-11-18T15:24:45.897Z,8.48
2022-11-18T15:27:14.100Z,8.93
2022-11-18T15:29:44.077Z,8.45
2022-11-18T15:32:12.408Z,9.00
2022-11-18T15:34:40.619Z,8.75
2022-11-18T15:37:10.916Z,8.93
2022-11-18T15:39:39.365Z,9.50
2022-11-18T15:42:07.646Z,8.90
2022-11-18T15:44:35.922Z,8.43
2022-11-18T15:47:05.692Z,9.40
2022-11-18T15:49:33.999Z,9.73
2022-11-18T15:52:02.251Z,10.02
2022-11-18T15:54:30.555Z,9.50
2022-11-18T15:56:58.874Z,10.15
2022-11-18T15:59:27.385Z,9.90
2022-11-18T16:01:56.429Z,11.52
2022-11-18T16:04:26.261Z,11.05
2022-11-18T16:06:55.020Z,11.68
2022-11-18T16:09:23.289Z,11.63
2022-11-18T16:12:09.081Z,11.30
2022-11-18T16:14:38.181Z,11.48
2022-11-18T16:17:06.479Z,11.57
2022-11-18T16:19:36.103Z,11.90
2022-11-18T16:22:04.394Z,12.50
2022-11-18T16:24:32.623Z,11.43
2022-11-18T16:27:00.898Z,13.65
2022-11-18T16:29:29.609Z,12.13
2022-11-18T16:31:56.828Z,12.85
2022-11-18T16:34:25.770Z,12.75
2022-11-18T16:36:56.653Z,11.32
2022-11-18T16:39:26.187Z,12.80
2022-11-18T16:42:02.167Z,13.27
2022-11-18T16:44:35.447Z,12.20
2022-11-18T16:47:06.525Z,12.48
2022-11-18T16:49:39.026Z,11.68
2022-11-18T16:52:08.698Z,11.57
2022-11-18T16:54:42.843Z,11.90
2022-11-18T16:57:12.894Z,12.48
2022-11-18T16:59:43.710Z,10.60
2022-11-18T17:02:13.231Z,10.85
2022-11-18T17:04:42.361Z,11.07
2022-11-18T17:07:12.063Z,11.68
2022-11-18T17:09:40.457Z,11.18
2022-11-18T17:12:09.331Z,11.20
2022-11-18T17:14:38.771Z,11.00
2022-11-18T17:17:07.149Z,10.90
2022-11-18T17:19:35.528Z,10.90
2022-11-18T17:22:03.876Z,10.68
2022-11-18T17:24:33.504Z,10.30
2022-11-18T17:27:01.767Z,10.00
2022-11-18T17:29:30.163Z,12.18
2022-11-18T17:31:58.392Z,13.27
2022-11-18T17:34:26.624Z,16.25
2022-11-18T17:36:57.423Z,16.52
2022-11-18T17:39:27.419Z,16.75
2022-11-18T17:42:15.504Z,18.73
2022-11-18T17:44:43.841Z,17.83
2022-11-18T17:47:12.055Z,17.70
2022-11-18T17:49:40.322Z,17.25
2022-11-18T17:52:08.767Z,16.25
2022-11-18T17:54:37.037Z,16.75
2022-11-18T17:57:06.924Z,15.98
2022-11-18T17:59:35.439Z,16.42
2022-11-18T18:02:03.734Z,15.48
2022-11-18T18:04:32.270Z,15.30
2022-11-18T18:07:00.701Z,16.33
2022-11-18T18:09:31.257Z,15.65
2022-11-18T18:12:00.880Z,15.95
2022-11-18T18:14:30.121Z,14.75
2022-11-18T18:17:00.369Z,14.35
2022-11-18T18:19:28.653Z,14.93
2022-11-18T18:21:56.867Z,14.60
2022-11-18T18:24:25.152Z,15.20
2022-11-18T18:26:53.352Z,14.27
2022-11-18T18:29:21.725Z,13.85
2022-11-18T18:31:51.372Z,13.75
2022-11-18T18:34:19.987Z,14.20
2022-11-18T18:36:48.293Z,13.73
2022-11-18T18:39:16.723Z,13.73
2022-11-18T18:41:44.982Z,13.77
2022-11-18T18:44:18.284Z,13.57
2022-11-18T18:46:45.900Z,12.85
2022-11-18T18:49:20.463Z,13.18
2022-11-18T18:51:50.265Z,13.50
2022-11-18T18:54:20.332Z,13.15
2022-11-18T18:56:49.265Z,13.13
2022-11-18T18:59:17.457Z,12.48
2022-11-18T19:01:45.904Z,13.07
2022-11-18T19:04:16.949Z,13.18
2022-11-18T19:06:56.816Z,12.45
2022-11-18T19:09:27.706Z,13.38
2022-11-18T19:12:13.534Z,13.07
2022-11-18T19:14:42.221Z,12.63
2022-11-18T19:17:12.040Z,12.18
2022-11-18T19:19:59.936Z,11.77
2022-11-18T19:22:29.967Z,12.27
2022-11-18T19:24:58.830Z,11.85
2022-11-18T19:27:27.618Z,11.68
2022-11-18T19:29:55.853Z,11.93
2022-11-18T19:32:24.569Z,11.77
2022-11-18T19:34:54.250Z,11.80
2022-11-18T19:37:22.492Z,11.18
2022-11-18T19:39:50.825Z,12.25
2022-11-18T19:42:19.280Z,11.68
2022-11-18T19:44:47.492Z,10.80
2022-11-18T19:47:15.724Z,11.13
2022-11-18T19:49:43.965Z,11.05
2022-11-18T19:52:13.695Z,11.02
2022-11-18T19:54:42.472Z,10.70
2022-11-18T19:57:10.763Z,11.48
2022-11-18T19:59:39.758Z,11.23
2022-11-18T20:02:08.149Z,11.50
2022-11-18T20:04:37.745Z,11.77
2022-11-18T20:07:06.217Z,13.45
2022-11-18T20:09:36.445Z,14.80
2022-11-18T20:12:04.919Z,15.00
2022-11-18T20:14:33.154Z,15.85
2022-11-18T20:17:01.489Z,16.13
2022-11-18T20:19:29.733Z,17.05
2022-11-18T20:21:58.138Z,17.23
2022-11-18T20:24:26.383Z,16.73
2022-11-18T20:26:56.289Z,17.52
2022-11-18T20:29:25.053Z,19.88
2022-11-18T20:31:53.756Z,25.85
2022-11-18T20:34:22.349Z,27.70
2022-11-18T20:36:53.669Z,27.80
2022-11-18T20:39:22.134Z,29.30
2022-11-18T20:42:07.289Z,30.10
2022-11-18T20:44:36.993Z,31.63
2022-11-18T20:47:05.496Z,31.00
2022-11-18T20:49:33.750Z,31.42
2022-11-18T20:52:01.968Z,29.90
2022-11-18T20:54:30.253Z,30.77
2022-11-18T20:56:58.596Z,29.77
2022-11-18T20:59:26.851Z,31.45
2022-11-18T21:01:57.028Z,30.38
2022-11-18T21:04:25.512Z,30.40
2022-11-18T21:06:58.942Z,29.92
2022-11-18T21:09:31.565Z,29.92
2022-11-18T21:11:59.952Z,31.45
2022-11-18T21:14:27.329Z,29.42
2022-11-18T21:17:00.693Z,29.45
2022-11-18T21:19:29.359Z,29.85
2022-11-18T21:21:56.627Z,29.90
2022-11-18T21:24:25.501Z,30.17
2022-11-18T21:26:55.485Z,29.25
2022-11-18T21:29:24.013Z,29.17
2022-11-18T21:31:52.262Z,30.05
2022-11-18T21:34:22.121Z,29.60
2022-11-18T21:36:54.202Z,30.00
2022-11-18T21:39:23.593Z,29.35
2022-11-18T21:41:56.398Z,29.50
2022-11-18T21:44:25.363Z,29.65
2022-11-18T21:46:53.744Z,29.30
2022-11-18T21:49:23.919Z,29.35
2022-11-18T21:51:52.203Z,29.88
2022-11-18T21:54:20.395Z,30.33
2022-11-18T21:56:48.697Z,29.52
2022-11-18T21:59:17.225Z,29.15
2022-11-18T22:01:45.924Z,29.33
2022-11-18T22:04:34.564Z,28.23
2022-11-18T22:07:05.444Z,27.73
2022-11-18T22:09:36.782Z,29.73
2022-11-18T22:12:07.098Z,28.98
2022-11-18T22:14:36.041Z,28.95
2022-11-18T22:17:04.447Z,28.67
2022-11-18T22:19:32.713Z,28.50
2022-11-18T22:22:01.074Z,27.67
2022-11-18T22:24:30.912Z,27.23
2022-11-18T22:26:59.189Z,27.58
2022-11-18T22:29:27.446Z,27.60
2022-11-18T22:31:55.737Z,28.10
2022-11-18T22:34:24.124Z,27.73
2022-11-18T22:36:52.464Z,28.00
2022-11-18T22:39:21.148Z,27.17
2022-11-18T22:42:08.807Z,27.45
2022-11-18T22:44:37.284Z,26.58
2022-11-18T22:47:05.579Z,26.33
2022-11-18T22:49:33.877Z,27.40
2022-11-18T22:52:02.275Z,27.58
2022-11-18T22:54:38.789Z,26.60
2022-11-18T22:57:09.340Z,26.05
2022-11-18T22:59:37.582Z,26.65
2022-11-18T23:02:05.858Z,26.27
2022-11-18T23:04:34.107Z,27.00
2022-11-18T23:07:02.369Z,26.92
2022-11-18T23:09:30.605Z,26.50
2022-11-18T23:12:15.886Z,25.50
2022-11-18T23:14:45.645Z,25.30
2022-11-18T23:17:14.000Z,25.05
2022-11-18T23:19:43.639Z,25.75
2022-11-18T23:22:12.099Z,24.80
2022-11-18T23:24:40.461Z,26.08
2022-11-18T23:27:08.705Z,24.90
2022-11-18T23:29:37.187Z,25.10
2022-11-18T23:32:07.066Z,24.52
2022-11-18T23:34:35.411Z,23.13
2022-11-18T23:37:03.684Z,23.77
2022-11-18T23:39:31.962Z,24.52
2022-11-18T23:42:00.339Z,24.77
2022-11-18T23:44:47.965Z,23.90
2022-11-18T23:47:17.672Z,23.65
2022-11-18T23:49:46.194Z,24.00
2022-11-18T23:52:15.047Z,22.55
2022-11-18T23:54:43.342Z,23.10
2022-11-18T23:57:11.547Z,23.23
2022-11-18T23:59:39.917Z,22.75
